Time;durP1;ratioP1;P1;durP2;ratioP2;P2;SDS_P1;SDS_P2;PMS_P1;PMS_P2;Temp;Humidity;BMP_temperature;BMP_pressure;BME280_temperature;BME280_humidity;BME280_pressure;Samples;Min_cycle;Max_cycle;Signal;HPM_P1;HPM_P2
2022/07/26 00:00:23;;;;;;;2.45;1.05;;;;;;;23.36;55.88;98393.38;4156478;28;20235;-52
2022/07/26 00:02:25;;;;;;;1.10;0.90;;;;;;;23.36;56.00;98394.16;4168219;28;20226;-53
2022/07/26 00:04:27;;;;;;;1.35;1.00;;;;;;;23.35;56.01;98395.34;4151568;28;20215;-52
2022/07/26 00:06:29;;;;;;;1.08;0.95;;;;;;;23.37;56.13;98395.81;4153782;28;20275;-53
2022/07/26 00:08:31;;;;;;;2.15;0.90;;;;;;;23.27;55.91;98396.19;4167924;28;20274;-52
2022/07/26 00:10:32;;;;;;;2.85;1.10;;;;;;;23.21;56.31;98396.69;4152939;28;20732;-52
2022/07/26 00:12:34;;;;;;;1.65;0.88;;;;;;;23.14;56.38;98391.63;4167504;28;21112;-53
2022/07/26 00:14:36;;;;;;;3.22;0.90;;;;;;;23.17;56.34;98395.75;4168767;28;20233;-52
2022/07/26 00:16:39;;;;;;;1.92;1.23;;;;;;;23.16;56.35;98399.69;4154585;28;20686;-51
2022/07/26 00:18:41;;;;;;;1.30;0.98;;;;;;;23.17;56.70;98401.34;4153593;28;20201;-52
2022/07/26 00:20:43;;;;;;;1.27;0.85;;;;;;;23.16;56.69;98411.66;4153610;28;20232;-52
2022/07/26 00:22:45;;;;;;;1.60;0.90;;;;;;;23.13;56.67;98415.13;4156552;28;20200;-52
2022/07/26 00:24:46;;;;;;;2.13;1.55;;;;;;;23.06;56.83;98419.56;4153969;28;20201;-52
2022/07/26 00:26:48;;;;;;;1.77;1.15;;;;;;;23.05;56.75;98415.13;4157873;28;20216;-53
2022/07/26 00:28:50;;;;;;;1.00;0.90;;;;;;;23.02;56.96;98411.03;4159272;28;20330;-52
2022/07/26 00:30:51;;;;;;;1.67;1.00;;;;;;;23.09;56.79;98416.09;4152336;28;20672;-51
2022/07/26 00:32:53;;;;;;;2.05;0.88;;;;;;;22.94;57.00;98419.41;4151725;28;20204;-51
2022/07/26 00:34:55;;;;;;;1.50;1.10;;;;;;;22.97;56.82;98418.78;4156878;28;20282;-51
2022/07/26 00:36:57;;;;;;;2.42;1.05;;;;;;;22.99;57.04;98422.03;4153657;28;20212;-51
2022/07/26 00:38:58;;;;;;;2.05;1.05;;;;;;;22.83;57.26;98429.31;4154746;28;20212;-51
2022/07/26 00:41:00;;;;;;;1.17;1.08;;;;;;;22.88;57.00;98421.59;4139261;28;20290;-51
2022/07/26 00:43:02;;;;;;;1.30;1.10;;;;;;;22.92;56.71;98432.91;4151552;28;20232;-53
2022/07/26 00:45:06;;;;;;;1.75;1.20;;;;;;;22.86;57.13;98423.91;4149952;28;20599;-52
2022/07/26 00:47:07;;;;;;;1.08;1.02;;;;;;;22.83;57.18;98430.13;4153670;28;20582;-51
2022/07/26 00:49:10;;;;;;;1.52;1.20;;;;;;;22.87;56.78;98441.44;4140066;28;20213;-52
2022/07/26 00:51:13;;;;;;;1.17;1.05;;;;;;;22.86;57.16;98439.81;4155664;28;20235;-51
2022/07/26 00:53:18;;;;;;;1.25;1.00;;;;;;;22.89;56.93;98445.53;4155654;28;20263;-53
2022/07/26 00:55:20;;;;;;;2.30;0.90;;;;;;;22.89;56.93;98439.13;4150072;28;20200;-52
2022/07/26 00:57:23;;;;;;;1.42;1.33;;;;;;;22.83;57.13;98432.13;4167537;28;20657;-53
2022/07/26 00:59:24;;;;;;;2.20;1.13;;;;;;;22.80;57.33;98435.56;4154446;28;20208;-53
2022/07/26 01:01:26;;;;;;;1.42;1.13;;;;;;;22.80;57.05;98446.72;4133330;28;20294;-52
2022/07/26 01:03:28;;;;;;;1.90;1.42;;;;;;;22.74;57.43;98448.03;4147553;28;20209;-52
2022/07/26 01:05:40;;;;;;;1.65;1.20;;;;;;;22.75;57.12;98452.47;4154455;28;20243;-53
2022/07/26 01:07:42;;;;;;;2.15;1.25;;;;;;;22.71;57.25;98454.28;4154714;28;20670;-53
2022/07/26 01:09:44;;;;;;;5.60;1.50;;;;;;;22.69;57.43;98456.56;4159494;28;20204;-53
2022/07/26 01:11:45;;;;;;;2.05;1.40;;;;;;;22.61;57.12;98449.88;4153107;28;20304;-52
2022/07/26 01:13:48;;;;;;;1.15;1.00;;;;;;;22.56;57.29;98452.81;4155381;28;20208;-52
2022/07/26 01:15:50;;;;;;;0.90;0.90;;;;;;;22.51;57.21;98454.97;4153133;28;20688;-51
2022/07/26 01:17:52;;;;;;;1.85;1.00;;;;;;;22.50;57.33;98464.47;4139894;28;20197;-52
2022/07/26 01:19:54;;;;;;;1.20;1.02;;;;;;;22.48;57.43;98459.22;4160918;28;20212;-53
2022/07/26 01:21:55;;;;;;;1.75;1.17;;;;;;;22.45;57.20;98461.84;4161389;28;20243;-53
2022/07/26 01:23:57;;;;;;;1.23;1.13;;;;;;;22.42;57.56;98462.47;4152373;28;21456;-52
2022/07/26 01:25:59;;;;;;;1.85;1.60;;;;;;;22.60;57.11;98459.38;4158025;28;20721;-52
2022/07/26 01:28:01;;;;;;;2.80;1.15;;;;;;;22.41;56.99;98460.81;4154437;28;20235;-52
2022/07/26 01:30:04;;;;;;;1.95;1.08;;;;;;;22.44;57.38;98460.22;4153127;28;20701;-53
2022/07/26 01:32:07;;;;;;;1.65;0.90;;;;;;;22.37;57.14;98462.63;4170918;28;20617;-52
2022/07/26 01:34:09;;;;;;;2.45;1.33;;;;;;;22.37;57.10;98466.22;4169082;28;20204;-52
2022/07/26 01:36:11;;;;;;;2.38;1.23;;;;;;;22.22;57.86;98465.88;4141811;28;20233;-53
2022/07/26 01:38:13;;;;;;;2.33;1.30;;;;;;;22.11;58.36;98459.00;4141122;28;20204;-52
2022/07/26 01:40:15;;;;;;;2.20;1.30;;;;;;;22.14;58.22;98461.13;4159326;28;20635;-53
2022/07/26 01:42:16;;;;;;;4.13;1.20;;;;;;;21.87;59.29;98464.19;4156032;28;20200;-53
2022/07/26 01:44:18;;;;;;;4.47;0.98;;;;;;;21.84;59.75;98459.28;4150100;28;20208;-53
2022/07/26 01:46:20;;;;;;;1.85;0.98;;;;;;;21.74;59.87;98462.34;4170368;28;20199;-53
2022/07/26 01:48:21;;;;;;;1.48;1.17;;;;;;;21.74;60.12;98465.16;4161752;28;20224;-52
2022/07/26 01:50:23;;;;;;;1.40;1.30;;;;;;;21.78;60.30;98463.38;4158431;28;20227;-52
2022/07/26 01:52:26;;;;;;;4.68;1.20;;;;;;;21.84;60.08;98464.84;4156686;28;20204;-51
2022/07/26 01:54:27;;;;;;;1.30;1.20;;;;;;;21.89;59.82;98461.91;4170639;28;20204;-53
2022/07/26 01:56:29;;;;;;;1.20;1.10;;;;;;;21.94;59.91;98461.75;4158297;28;20231;-53
2022/07/26 01:58:31;;;;;;;1.85;1.30;;;;;;;21.96;59.61;98465.03;4159503;28;20207;-53
2022/07/26 02:00:33;;;;;;;9.02;2.15;;;;;;;21.98;59.50;98471.91;4170381;28;20227;-53
2022/07/26 02:02:34;;;;;;;2.75;1.33;;;;;;;21.95;59.74;98466.19;4153622;28;20212;-52
2022/07/26 02:06:56;;;;;;;1.42;1.00;;;;;;;21.85;60.70;98467.28;4154283;28;20358;-53
2022/07/26 02:08:59;;;;;;;2.72;1.30;;;;;;;21.81;60.44;98473.84;4158937;28;20208;-51
2022/07/26 02:11:00;;;;;;;3.00;1.20;;;;;;;21.86;60.38;98474.53;4155178;28;20232;-52
2022/07/26 02:13:05;;;;;;;17.10;1.15;;;;;;;21.82;60.58;98475.47;4140670;28;20678;-51
2022/07/26 02:15:09;;;;;;;2.08;1.13;;;;;;;21.92;60.20;98472.41;4155515;28;20567;-52
2022/07/26 02:17:11;;;;;;;2.53;1.00;;;;;;;21.69;60.91;98479.22;4157336;28;20204;-52
2022/07/26 02:19:12;;;;;;;2.78;0.98;;;;;;;21.67;60.88;98478.72;4136845;28;20206;-51
2022/07/26 02:21:14;;;;;;;1.48;1.30;;;;;;;21.53;61.00;98472.41;4168490;28;20231;-52
2022/07/26 02:23:16;;;;;;;1.20;1.10;;;;;;;21.53;61.09;98472.41;4169122;28;20207;-52
2022/07/26 02:25:18;;;;;;;3.38;1.30;;;;;;;21.40;61.32;98479.75;4155298;28;20724;-52
2022/07/26 02:27:19;;;;;;;4.60;1.40;;;;;;;21.46;61.19;98470.13;4156730;28;20706;-52
2022/07/26 02:29:21;;;;;;;5.05;1.30;;;;;;;21.39;61.21;98480.06;4159160;28;20207;-52
2022/07/26 02:31:23;;;;;;;1.90;1.25;;;;;;;21.46;61.41;98472.06;4158006;28;20290;-53
2022/07/26 02:33:32;;;;;;;2.08;1.20;;;;;;;21.48;60.91;98475.34;4155821;28;20321;-52
2022/07/26 02:35:35;;;;;;;2.30;1.30;;;;;;;21.53;60.96;98480.78;4158108;28;20207;-52
2022/07/26 02:37:39;;;;;;;1.20;1.10;;;;;;;21.54;60.68;98485.19;4154319;28;20205;-53
2022/07/26 02:39:44;;;;;;;2.55;1.48;;;;;;;21.59;60.78;98487.84;4157368;28;20283;-53
2022/07/26 02:41:46;;;;;;;2.33;1.27;;;;;;;21.57;60.77;98479.81;4155799;28;20220;-53
2022/07/26 02:43:48;;;;;;;2.70;1.27;;;;;;;21.62;60.55;98476.03;4156694;28;20210;-52
2022/07/26 02:45:49;;;;;;;2.53;1.10;;;;;;;21.57;60.99;98484.56;4170983;28;20214;-51
2022/07/26 02:48:03;;;;;;;4.22;1.13;;;;;;;21.50;61.01;98478.66;4154849;28;20236;-51
2022/07/26 02:50:06;;;;;;;2.63;1.17;;;;;;;21.48;61.22;98472.56;4158104;28;20208;-51
2022/07/26 02:52:08;;;;;;;2.22;1.52;;;;;;;21.45;61.05;98470.44;4152413;28;20223;-53
2022/07/26 02:54:09;;;;;;;1.63;1.20;;;;;;;21.46;61.16;98477.63;4155027;28;20574;-53
2022/07/26 02:56:12;;;;;;;2.53;1.30;;;;;;;21.39;60.99;98477.28;4167096;28;20280;-51
2022/07/26 02:58:13;;;;;;;1.88;1.08;;;;;;;21.48;60.62;98478.13;4154852;28;20193;-51
2022/07/26 03:00:18;;;;;;;2.38;1.08;;;;;;;21.29;60.78;98489.50;4152811;28;20662;-52
2022/07/26 03:02:20;;;;;;;1.92;1.17;;;;;;;21.31;60.69;98487.22;4150733;28;20627;-52
2022/07/26 03:04:23;;;;;;;1.30;1.10;;;;;;;21.32;60.81;98493.63;4155078;28;20270;-52
2022/07/26 03:06:25;;;;;;;5.20;1.23;;;;;;;21.33;60.35;98493.31;4151453;28;20255;-53
2022/07/26 03:08:26;;;;;;;2.47;1.00;;;;;;;21.24;60.79;98486.84;4156102;28;20224;-51
2022/07/26 03:10:28;;;;;;;1.85;1.08;;;;;;;21.13;60.77;98490.25;4158553;28;20243;-51
2022/07/26 03:12:30;;;;;;;2.42;1.33;;;;;;;21.13;60.95;98487.44;4154584;28;20678;-51
2022/07/26 03:14:32;;;;;;;1.33;1.15;;;;;;;21.03;61.01;98490.50;4155440;28;21155;-51
2022/07/26 03:16:34;;;;;;;1.42;1.20;;;;;;;20.95;60.71;98500.44;4156006;28;20219;-53
2022/07/26 03:18:36;;;;;;;2.88;1.10;;;;;;;20.95;60.79;98494.03;4155986;28;20209;-51
2022/07/26 03:20:37;;;;;;;1.77;1.23;;;;;;;20.98;60.72;98488.66;4155222;28;20617;-53
2022/07/26 03:22:39;;;;;;;2.83;1.90;;;;;;;21.04;60.86;98497.72;4152209;28;20252;-52
2022/07/26 03:24:41;;;;;;;2.58;1.00;;;;;;;21.00;60.77;98491.13;4153492;28;20212;-52
2022/07/26 03:26:42;;;;;;;5.38;1.20;;;;;;;21.06;60.65;98489.88;4159184;28;20208;-53
2022/07/26 03:28:44;;;;;;;4.20;1.83;;;;;;;21.00;60.58;98491.13;4158642;28;20314;-53
2022/07/26 03:30:46;;;;;;;2.25;1.30;;;;;;;21.07;60.21;98497.91;4168400;28;20301;-52
2022/07/26 03:32:48;;;;;;;4.10;1.33;;;;;;;21.02;60.30;98495.25;4172441;28;20683;-52
2022/07/26 03:34:50;;;;;;;8.70;1.20;;;;;;;21.02;60.30;98497.19;4157736;28;20201;-51
2022/07/26 03:36:52;;;;;;;1.52;1.30;;;;;;;20.92;60.79;98501.06;4172997;28;20342;-52
2022/07/26 03:38:53;;;;;;;2.80;1.20;;;;;;;20.99;60.58;98498.66;4166064;28;20216;-53
2022/07/26 03:40:55;;;;;;;1.10;1.00;;;;;;;20.71;61.15;98507.44;4155107;28;20228;-52
2022/07/26 03:42:57;;;;;;;2.00;1.00;;;;;;;20.67;61.22;98506.41;4158724;28;20196;-52
2022/07/26 03:44:58;;;;;;;2.13;1.13;;;;;;;20.69;60.99;98502.19;4153130;28;20204;-53
2022/07/26 03:47:01;;;;;;;2.97;0.90;;;;;;;20.65;61.07;98505.91;4153015;28;20231;-51
2022/07/26 03:49:03;;;;;;;1.75;1.00;;;;;;;20.69;60.91;98504.97;4156627;28;20251;-51
2022/07/26 03:51:04;;;;;;;1.23;0.90;;;;;;;20.75;60.76;98500.09;4153459;28;20308;-52
2022/07/26 03:53:06;;;;;;;4.07;1.02;;;;;;;20.75;60.63;98500.09;4153884;28;20208;-52
2022/07/26 03:57:29;;;;;;;6.00;1.02;;;;;;;20.50;61.35;98501.53;4153895;28;20200;-52
2022/07/26 03:59:30;;;;;;;2.58;1.10;;;;;;;20.60;61.41;98503.25;4159751;28;20330;-51
2022/07/26 04:01:40;;;;;;;1.17;0.90;;;;;;;20.64;61.37;98504.28;4169719;28;20232;-51
2022/07/26 04:03:42;;;;;;;1.88;0.90;;;;;;;20.48;61.44;98494.66;4167711;28;20539;-52
2022/07/26 04:05:48;;;;;;;5.93;1.27;;;;;;;20.30;61.60;98498.44;4149546;28;20205;-53
2022/07/26 04:07:53;;;;;;;1.58;1.48;;;;;;;20.27;61.24;98502.66;4157206;28;20221;-51
2022/07/26 04:09:56;;;;;;;1.52;0.95;;;;;;;20.41;61.09;98508.16;4158052;28;20212;-52
2022/07/26 04:11:58;;;;;;;2.58;1.00;;;;;;;20.34;60.98;98499.44;4155604;28;20216;-52
2022/07/26 04:14:00;;;;;;;1.80;1.00;;;;;;;20.34;60.82;98507.78;4151541;28;20225;-51
2022/07/26 04:16:02;;;;;;;1.52;1.00;;;;;;;20.36;60.51;98497.16;4151024;28;20717;-52
2022/07/26 04:18:04;;;;;;;1.77;1.00;;;;;;;20.39;60.48;98502.09;4151664;28;20262;-51
2022/07/26 04:20:07;;;;;;;2.50;1.20;;;;;;;20.29;60.74;98502.31;4157374;28;20331;-51
2022/07/26 04:22:09;;;;;;;1.40;0.90;;;;;;;20.15;60.67;98507.09;4157495;28;20259;-53
2022/07/26 04:24:11;;;;;;;2.42;0.90;;;;;;;20.18;60.74;98506.50;4149874;28;20567;-51
2022/07/26 04:26:15;;;;;;;2.50;0.90;;;;;;;20.11;60.61;98508.88;4150260;28;20242;-52
2022/07/26 04:28:17;;;;;;;2.28;0.80;;;;;;;20.08;60.84;98513.09;4153532;28;20252;-52
2022/07/26 04:30:19;;;;;;;1.05;0.90;;;;;;;20.12;60.62;98518.84;4153646;28;20235;-51
2022/07/26 04:32:21;;;;;;;1.92;1.10;;;;;;;20.17;60.65;98515.97;4155220;28;20201;-51
2022/07/26 04:34:22;;;;;;;2.15;0.90;;;;;;;19.97;61.07;98519.16;4156439;28;20801;-51
2022/07/26 04:36:24;;;;;;;2.85;1.00;;;;;;;19.97;61.02;98516.38;4149254;28;20348;-52
2022/07/26 04:38:26;;;;;;;4.18;1.13;;;;;;;19.95;61.07;98518.63;4153051;28;20308;-53
2022/07/26 04:40:32;;;;;;;1.85;0.90;;;;;;;20.03;61.05;98523.44;4157543;28;20240;-52
2022/07/26 04:42:34;;;;;;;2.25;0.85;;;;;;;20.03;60.86;98523.44;4157863;28;20212;-53
2022/07/26 04:44:36;;;;;;;6.82;0.90;;;;;;;19.88;61.05;98519.06;4153021;28;20224;-52
2022/07/26 04:46:38;;;;;;;1.30;0.70;;;;;;;19.83;61.09;98516.38;4139204;28;20667;-53
2022/07/26 04:48:45;;;;;;;1.35;0.93;;;;;;;19.79;61.24;98514.53;4170020;28;20224;-52
2022/07/26 04:50:47;;;;;;;8.27;1.00;;;;;;;19.96;60.91;98517.47;4154376;28;21873;-52
2022/07/26 04:52:50;;;;;;;2.22;0.98;;;;;;;19.82;61.39;98525.84;4159157;28;20568;-52
2022/07/26 04:54:51;;;;;;;3.38;0.90;;;;;;;19.81;61.34;98518.66;4155010;28;20264;-52
2022/07/26 04:56:53;;;;;;;1.17;0.70;;;;;;;19.78;61.42;98516.47;4154260;28;20201;-53
2022/07/26 04:58:55;;;;;;;2.55;1.05;;;;;;;19.82;61.33;98513.91;4155565;28;20209;-53
2022/07/26 05:00:58;;;;;;;1.77;0.80;;;;;;;19.72;61.41;98514.13;4142576;28;20236;-52
2022/07/26 05:03:15;;;;;;;3.40;1.10;;;;;;;19.71;61.50;98529.16;4155204;28;21025;-52
2022/07/26 05:05:17;;;;;;;1.88;1.20;;;;;;;19.76;61.46;98529.84;4156134;28;20209;-52
2022/07/26 05:07:19;;;;;;;1.58;0.70;;;;;;;19.78;61.43;98524.00;4158232;28;20213;-53
2022/07/26 05:09:21;;;;;;;2.80;1.00;;;;;;;19.92;61.21;98531.16;4139126;28;20217;-53
2022/07/26 05:11:22;;;;;;;1.25;0.75;;;;;;;19.95;61.08;98529.72;4157510;28;20279;-53
2022/07/26 05:13:24;;;;;;;2.92;1.75;;;;;;;19.89;61.13;98531.81;4161374;28;20686;-53
2022/07/26 05:15:31;;;;;;;4.40;0.88;;;;;;;19.95;61.12;98535.28;4174014;28;20257;-52
2022/07/26 05:17:40;;;;;;;3.13;0.73;;;;;;;19.96;60.91;98540.53;4159964;28;20229;-52
2022/07/26 05:19:42;;;;;;;6.95;0.77;;;;;;;19.84;61.41;98545.78;4161689;28;20208;-52
2022/07/26 05:21:50;;;;;;;2.97;0.90;;;;;;;19.91;61.12;98543.41;4161610;28;20224;-52
2022/07/26 05:23:54;;;;;;;2.05;0.80;;;;;;;19.92;61.17;98547.03;4163735;28;20201;-52
2022/07/26 05:25:55;;;;;;;6.72;0.88;;;;;;;19.62;62.15;98554.03;4174117;28;20195;-52
2022/07/26 05:28:00;;;;;;;1.65;1.08;;;;;;;19.73;61.56;98554.66;4161816;28;20261;-52
2022/07/26 05:30:03;;;;;;;2.85;0.80;;;;;;;19.80;61.54;98552.28;4161414;28;20694;-53
2022/07/26 05:32:05;;;;;;;3.35;1.00;;;;;;;19.87;61.38;98547.13;4153175;28;20205;-51
2022/07/26 05:34:06;;;;;;;4.75;1.45;;;;;;;19.97;61.03;98544.16;4163514;28;20200;-53
2022/07/26 05:36:09;;;;;;;1.70;0.80;;;;;;;20.01;60.83;98551.56;4155077;28;20201;-52
2022/07/26 05:38:11;;;;;;;1.73;0.88;;;;;;;20.05;60.84;98555.38;4165005;28;20734;-52
2022/07/26 05:40:12;;;;;;;6.78;0.90;;;;;;;19.89;60.99;98551.25;4156652;28;20239;-52
2022/07/26 05:42:14;;;;;;;0.65;0.47;;;;;;;20.07;60.93;98553.13;4162119;28;20204;-53
2022/07/26 05:44:16;;;;;;;1.42;0.88;;;;;;;20.17;60.82;98554.88;4158466;28;20240;-52
2022/07/26 05:46:19;;;;;;;3.50;0.77;;;;;;;20.37;60.68;98559.97;4158829;28;20261;-53
2022/07/26 05:48:21;;;;;;;2.13;0.93;;;;;;;20.52;59.90;98559.63;4156106;28;20233;-52
2022/07/26 05:50:22;;;;;;;2.47;0.80;;;;;;;20.52;59.83;98560.44;4160533;28;20229;-51
2022/07/26 05:52:24;;;;;;;2.17;1.17;;;;;;;20.76;59.64;98562.94;4162424;28;21156;-52
2022/07/26 05:54:27;;;;;;;2.15;0.70;;;;;;;21.03;59.55;98571.19;4154563;28;20263;-52
2022/07/26 05:56:29;;;;;;;3.97;0.85;;;;;;;20.77;59.37;98559.84;4171542;28;20204;-53
2022/07/26 05:58:30;;;;;;;8.60;1.00;;;;;;;20.94;59.63;98559.19;4173392;28;20200;-52
2022/07/26 06:00:33;;;;;;;2.30;0.80;;;;;;;21.02;58.86;98564.00;4146248;28;20659;-51
2022/07/26 06:02:35;;;;;;;4.43;0.70;;;;;;;20.83;59.37;98563.31;4170033;28;20207;-52
2022/07/26 06:04:38;;;;;;;2.78;0.98;;;;;;;20.98;58.91;98565.78;4158017;28;20208;-53
2022/07/26 06:06:40;;;;;;;2.67;0.60;;;;;;;20.95;58.89;98571.97;4171876;28;20465;-52
2022/07/26 06:08:42;;;;;;;3.05;0.93;;;;;;;20.87;59.40;98564.34;4155185;28;20330;-52
2022/07/26 06:10:44;;;;;;;1.55;0.68;;;;;;;20.85;59.33;98561.06;4145021;28;20770;-52
2022/07/26 06:12:46;;;;;;;4.15;0.90;;;;;;;21.10;59.34;98568.81;4157301;28;20236;-52
2022/07/26 06:14:48;;;;;;;1.90;0.90;;;;;;;21.32;59.12;98566.00;4163144;28;20282;-52
2022/07/26 06:16:50;;;;;;;2.40;0.90;;;;;;;21.45;58.24;98565.09;4156452;28;20208;-52
2022/07/26 06:18:52;;;;;;;1.90;0.70;;;;;;;21.41;58.04;98566.88;4155369;28;20209;-52
2022/07/26 06:20:54;;;;;;;6.75;0.80;;;;;;;21.50;58.20;98567.78;4174715;28;20228;-52
2022/07/26 06:23:02;;;;;;;1.52;0.75;;;;;;;21.51;58.16;98575.78;4145104;28;20200;-52
2022/07/26 06:25:05;;;;;;;1.10;0.70;;;;;;;21.65;57.49;98575.69;4145695;28;20686;-52
2022/07/26 06:27:07;;;;;;;1.15;0.70;;;;;;;21.44;57.91;98580.19;4162234;28;20234;-53
2022/07/26 06:29:09;;;;;;;2.45;0.85;;;;;;;21.40;57.82;98579.16;4159805;28;20296;-53
2022/07/26 06:31:10;;;;;;;2.10;0.80;;;;;;;21.49;57.98;98578.06;4161885;28;20617;-54
2022/07/26 06:33:12;;;;;;;1.40;0.80;;;;;;;21.42;58.08;98585.22;4176853;28;20209;-53
2022/07/26 06:35:14;;;;;;;2.60;0.77;;;;;;;21.71;57.61;98589.19;4162329;28;20204;-52
2022/07/26 06:37:16;;;;;;;2.40;0.80;;;;;;;21.61;57.62;98585.84;4154779;28;20558;-52
2022/07/26 06:39:18;;;;;;;1.63;0.70;;;;;;;21.72;57.61;98588.03;4143434;28;20221;-51
2022/07/26 06:41:20;;;;;;;0.95;0.60;;;;;;;21.90;57.26;98594.53;4151533;28;20251;-52
2022/07/26 06:43:23;;;;;;;2.28;0.80;;;;;;;22.02;56.90;98586.38;4150830;28;20658;-52
2022/07/26 06:45:27;;;;;;;2.20;0.93;;;;;;;21.82;57.25;98584.16;4155880;28;20200;-52
2022/07/26 06:47:30;;;;;;;2.83;1.00;;;;;;;21.92;57.07;98584.69;4169767;28;20619;-52
2022/07/26 06:49:32;;;;;;;22.42;1.25;;;;;;;22.04;56.83;98573.75;4160459;28;20224;-53
2022/07/26 06:51:33;;;;;;;4.63;0.75;;;;;;;22.16;57.05;98576.75;4154483;28;20770;-53
2022/07/26 06:53:35;;;;;;;3.70;0.95;;;;;;;22.20;57.02;98572.19;4153460;28;20597;-52
2022/07/26 06:55:37;;;;;;;1.65;0.90;;;;;;;22.15;56.75;98565.91;4155866;28;20216;-52
2022/07/26 06:57:39;;;;;;;1.35;0.73;;;;;;;22.40;55.89;98570.75;4156429;28;20678;-52
2022/07/26 06:59:50;;;;;;;1.70;0.95;;;;;;;22.35;56.01;98580.09;4153745;28;20239;-52
2022/07/26 07:01:52;;;;;;;1.45;1.00;;;;;;;22.17;55.89;98583.97;4150118;28;20225;-52
2022/07/26 07:04:00;;;;;;;1.00;0.80;;;;;;;22.55;56.23;98578.66;4154820;28;20199;-51
2022/07/26 07:06:02;;;;;;;2.35;0.80;;;;;;;22.56;55.58;98583.13;4154284;28;20208;-53
2022/07/26 07:08:05;;;;;;;4.00;1.00;;;;;;;22.56;55.56;98571.97;4148821;28;20208;-53
2022/07/26 07:10:08;;;;;;;4.38;0.70;;;;;;;22.61;55.57;98582.94;4151179;28;20600;-53
2022/07/26 07:12:10;;;;;;;3.78;0.77;;;;;;;22.75;55.13;98578.03;4151342;28;20672;-55
2022/07/26 07:14:12;;;;;;;1.10;0.70;;;;;;;23.10;54.92;98574.13;4154748;28;20380;-53
2022/07/26 07:16:14;;;;;;;1.85;0.70;;;;;;;23.12;54.21;98577.41;4154455;28;20211;-53
2022/07/26 07:18:16;;;;;;;2.35;1.15;;;;;;;22.99;54.90;98578.38;4154134;28;20299;-52
2022/07/26 07:20:18;;;;;;;2.33;0.70;;;;;;;22.82;54.08;98573.63;4154364;28;20228;-52
2022/07/26 07:22:20;;;;;;;2.15;0.75;;;;;;;23.15;54.52;98571.13;4157351;28;20572;-53
2022/07/26 07:24:24;;;;;;;5.45;0.82;;;;;;;22.98;54.52;98577.56;4154589;28;20287;-52
2022/07/26 07:26:30;;;;;;;1.45;0.60;;;;;;;22.83;54.42;98574.44;4161652;28;20216;-51
2022/07/26 07:28:32;;;;;;;6.95;1.10;;;;;;;22.98;54.87;98576.75;4161277;28;20266;-53
2022/07/26 07:30:35;;;;;;;0.95;0.70;;;;;;;23.04;53.67;98569.84;4159830;28;20263;-52
2022/07/26 07:32:38;;;;;;;2.60;0.90;;;;;;;23.03;53.75;98563.44;4151964;28;20204;-52
2022/07/26 07:34:40;;;;;;;1.27;0.57;;;;;;;23.37;53.61;98576.56;4160796;28;20200;-52
2022/07/26 07:36:44;;;;;;;6.25;0.77;;;;;;;23.35;53.06;98576.06;4155146;28;20299;-52
2022/07/26 07:38:47;;;;;;;1.92;1.00;;;;;;;23.34;53.17;98568.84;4161962;28;20657;-53
2022/07/26 07:40:50;;;;;;;2.30;0.63;;;;;;;23.29;53.80;98572.63;4153073;28;20231;-52
2022/07/26 07:42:52;;;;;;;1.88;0.82;;;;;;;23.67;53.10;98572.72;4153766;28;20290;-53
2022/07/26 07:44:58;;;;;;;2.80;1.00;;;;;;;23.77;52.61;98575.16;4153348;28;20208;-52
2022/07/26 07:47:00;;;;;;;5.38;1.02;;;;;;;23.63;52.32;98582.94;4151704;28;20197;-52
2022/07/26 07:49:02;;;;;;;1.60;0.80;;;;;;;23.31;52.88;98580.69;4154180;28;20235;-53
2022/07/26 07:51:06;;;;;;;3.05;1.00;;;;;;;22.59;53.96;98574.09;4159371;28;20301;-51
2022/07/26 07:53:08;;;;;;;2.20;1.20;;;;;;;22.81;53.78;98576.72;4161523;28;20208;-52
2022/07/26 07:55:10;;;;;;;2.42;0.82;;;;;;;23.27;53.46;98574.13;4160911;28;20717;-53
2022/07/26 07:57:35;;;;;;;2.22;0.80;;;;;;;23.69;53.63;98576.81;4153145;28;20258;-52
2022/07/26 07:59:37;;;;;;;0.93;0.70;;;;;;;23.77;52.81;98574.00;4160533;28;20200;-52
2022/07/26 08:01:40;;;;;;;2.80;0.80;;;;;;;23.34;52.29;98586.44;4136266;28;20229;-51
2022/07/26 08:03:42;;;;;;;1.13;0.70;;;;;;;23.14;52.80;98580.66;4153495;28;20219;-53
2022/07/26 08:05:52;;;;;;;1.48;0.68;;;;;;;23.45;52.98;98581.31;4158424;28;20214;-52
2022/07/26 08:07:54;;;;;;;1.95;0.80;;;;;;;23.91;51.71;98578.59;4156021;28;20273;-52
2022/07/26 08:09:56;;;;;;;1.42;0.70;;;;;;;24.00;51.35;98578.19;4139478;28;20235;-53
2022/07/26 08:11:58;;;;;;;3.13;0.80;;;;;;;23.62;51.88;98579.31;4158328;28;20254;-52
2022/07/26 08:14:01;;;;;;;2.72;0.70;;;;;;;23.91;51.67;98573.00;4156862;28;20208;-54
2022/07/26 08:16:04;;;;;;;2.35;1.15;;;;;;;24.06;50.86;98585.25;4169131;28;20222;-53
2022/07/26 08:18:10;;;;;;;1.45;0.90;;;;;;;24.43;50.86;98581.59;4158293;28;20212;-53
2022/07/26 08:20:14;;;;;;;2.58;0.65;;;;;;;24.64;50.48;98582.50;4154855;28;20598;-52
2022/07/26 08:22:16;;;;;;;2.13;0.77;;;;;;;24.86;48.93;98579.34;4144346;28;20287;-53
2022/07/26 08:24:19;;;;;;;1.25;0.77;;;;;;;24.47;49.37;98596.53;4160358;28;20231;-53
2022/07/26 08:26:23;;;;;;;1.02;0.60;;;;;;;24.11;50.42;98593.47;4158577;28;20209;-52
2022/07/26 08:28:28;;;;;;;2.47;0.55;;;;;;;24.25;50.30;98599.63;4151793;28;20662;-51
2022/07/26 08:30:48;;;;;;;2.63;0.75;;;;;;;24.26;50.27;98598.47;4145478;28;20216;-52
2022/07/26 08:32:49;;;;;;;2.20;0.70;;;;;;;23.71;50.91;98596.06;4140262;28;20213;-52
2022/07/26 08:34:51;;;;;;;1.23;0.68;;;;;;;23.50;51.43;98597.91;4166922;28;20261;-52
2022/07/26 08:36:53;;;;;;;1.15;0.60;;;;;;;23.50;52.07;98601.50;4160449;28;20210;-53
2022/07/26 08:39:17;;;;;;;2.95;0.80;;;;;;;23.73;51.21;98593.75;4156604;28;20259;-52
2022/07/26 08:41:19;;;;;;;0.85;0.57;;;;;;;23.77;51.27;98595.53;4140652;28;20711;-52
2022/07/26 08:43:21;;;;;;;0.70;0.70;;;;;;;24.09;50.24;98597.75;4152556;28;20211;-53
2022/07/26 08:45:27;;;;;;;1.67;0.60;;;;;;;24.71;51.18;98602.38;4160090;28;20207;-53
2022/07/26 08:47:29;;;;;;;4.72;0.70;;;;;;;25.14;48.76;98604.84;4155804;28;20231;-54
2022/07/26 08:49:41;;;;;;;1.92;0.70;;;;;;;25.09;49.35;98605.03;4154514;28;20314;-52
2022/07/26 08:51:43;;;;;;;1.73;0.60;;;;;;;24.29;49.70;98606.22;4151809;28;20290;-52
2022/07/26 08:53:45;;;;;;;1.58;0.70;;;;;;;24.42;50.16;98598.72;4151214;28;21059;-52
2022/07/26 08:55:47;;;;;;;1.73;0.70;;;;;;;24.21;50.36;98601.47;4151171;28;20718;-52
2022/07/26 08:58:07;;;;;;;4.32;1.02;;;;;;;24.05;50.81;98608.78;4141620;28;20208;-52
2022/07/26 09:00:36;;;;;;;11.63;0.93;;;;;;;23.13;52.79;98604.16;4168495;28;20690;-51
2022/07/26 09:02:40;;;;;;;11.45;1.40;;;;;;;23.69;51.61;98609.56;4155032;28;20986;-53
2022/07/26 09:04:44;;;;;;;1.75;0.70;;;;;;;24.23;51.09;98604.75;4166880;28;20342;-52
2022/07/26 09:06:59;;;;;;;2.80;0.70;;;;;;;24.67;49.24;98608.97;4152294;28;20204;-53
2022/07/26 09:09:11;;;;;;;2.58;1.00;;;;;;;25.00;48.37;98604.31;4152340;28;20589;-53
2022/07/26 09:11:22;;;;;;;1.90;0.65;;;;;;;25.57;47.96;98606.09;4153806;28;20231;-52
2022/07/26 09:13:50;;;;;;;2.25;0.73;;;;;;;26.07;46.91;98608.72;4154603;28;20212;-52
2022/07/26 09:16:11;;;;;;;2.85;0.70;;;;;;;26.29;45.99;98611.91;4142223;28;20825;-52
2022/07/26 09:18:27;;;;;;;6.65;0.60;;;;;;;26.15;47.03;98617.03;4138294;28;20241;-52
2022/07/26 09:20:31;;;;;;;2.45;0.70;;;;;;;25.82;46.72;98613.44;4153274;28;20217;-52
2022/07/26 09:22:32;;;;;;;2.45;0.93;;;;;;;25.97;46.91;98604.38;4167222;28;20234;-52
2022/07/26 09:24:37;;;;;;;3.55;1.38;;;;;;;25.62;46.37;98617.09;4136305;28;20702;-52
2022/07/26 09:26:39;;;;;;;5.07;0.65;;;;;;;26.13;45.80;98613.72;4153556;28;20217;-52
2022/07/26 09:28:41;;;;;;;2.35;0.70;;;;;;;26.06;45.59;98623.91;4158222;28;20208;-52
2022/07/26 09:30:52;;;;;;;0.70;0.50;;;;;;;25.94;45.39;98621.88;4156303;28;20243;-51
2022/07/26 09:33:05;;;;;;;2.13;0.70;;;;;;;25.48;46.13;98625.00;4154889;28;20315;-52
2022/07/26 09:35:15;;;;;;;4.70;0.85;;;;;;;25.06;46.85;98616.94;4138795;28;20204;-52
2022/07/26 09:37:42;;;;;;;2.40;0.80;;;;;;;24.53;47.86;98620.38;4156034;28;20254;-52
2022/07/26 09:39:55;;;;;;;2.03;0.80;;;;;;;24.82;48.69;98614.81;4142074;28;20634;-53
2022/07/26 09:41:56;;;;;;;1.67;0.75;;;;;;;25.48;48.01;98629.78;4160551;28;20219;-52
2022/07/26 09:44:21;;;;;;;2.15;0.85;;;;;;;25.42;47.73;98620.78;4150791;28;20205;-53
2022/07/26 09:46:24;;;;;;;1.00;0.60;;;;;;;25.49;47.01;98623.00;4159411;28;20229;-52